Oconto, Wisconsin
Current Conditions -  °F | °C
As of 3:35 AM on Thursday 27 Nov 2014 (Local Time) from KOCQ Reporting Station
Overcast Overcast  
Wind Chill: 12°   Ceiling: 4000
Heat Index: 21°   Visibility: 7mi
Dew Point: 17°   Wind: 7mph
Humidity: 83%   Direction: 340°NNW
Pressure: 30.24"   Gusts: NA
Location:  44.89°N, 87.86°W
Report Text: KOCQ 270935Z AUTO 34006KT 7SM SCT034 BKN040 OVC049 M06/M08 A3024 RMK AO1 T10611085
Loading
Personal Weather Stations






























Interactive Weather Map New forecast layout! Learn more

10-Day Weather Forecast

Advertisements
Track Severe Weather on mobile